Time;durP1;ratioP1;P1;durP2;ratioP2;P2;SDS_P1;SDS_P2;PMS_P1;PMS_P2;Temp;Humidity;BMP_temperature;BMP_pressure;BME280_temperature;BME280_humidity;BME280_pressure;Samples;Min_cycle;Max_cycle;Signal;HPM_P1;HPM_P2
2022/01/22 00:01:27;;;;;;;3.55;1.63;;;19.30;43.30;;;;;;5044227;28;20029;-63
2022/01/22 00:03:53;;;;;;;2.65;1.30;;;19.30;43.20;;;;;;5071911;28;20361;-63
2022/01/22 00:06:18;;;;;;;2.55;1.00;;;19.30;43.20;;;;;;5072128;28;20378;-64
2022/01/22 00:08:44;;;;;;;3.40;1.20;;;19.30;43.30;;;;;;5071707;28;20024;-64
2022/01/22 00:11:10;;;;;;;2.58;1.00;;;19.30;43.30;;;;;;5057807;28;20075;-63
2022/01/22 00:16:20;;;;;;;2.45;1.30;;;19.30;43.30;;;;;;5072895;28;20043;-64
2022/01/22 00:18:45;;;;;;;2.83;1.15;;;19.20;43.30;;;;;;5068829;28;20029;-63
2022/01/22 00:21:11;;;;;;;2.17;1.30;;;19.20;43.30;;;;;;5035062;28;20035;-63
2022/01/22 00:23:38;;;;;;;3.17;1.17;;;19.20;43.20;;;;;;5068180;28;20379;-63
2022/01/22 00:26:04;;;;;;;2.08;1.00;;;19.20;43.20;;;;;;5063264;28;20487;-63
2022/01/22 00:28:30;;;;;;;2.55;1.13;;;19.20;43.00;;;;;;5062923;28;20028;-63
2022/01/22 00:30:55;;;;;;;3.97;1.30;;;19.20;43.00;;;;;;5071751;28;20434;-63
2022/01/22 00:33:21;;;;;;;3.42;1.30;;;19.20;42.90;;;;;;5063398;28;20476;-63
2022/01/22 00:35:46;;;;;;;2.90;1.20;;;19.10;42.90;;;;;;5071662;28;20056;-63
2022/01/22 00:38:14;;;;;;;2.38;1.30;;;19.10;43.70;;;;;;5057229;28;20075;-63
2022/01/22 00:40:40;;;;;;;3.47;1.25;;;19.10;42.80;;;;;;5072571;28;20040;-62
2022/01/22 00:43:05;;;;;;;2.85;1.20;;;19.10;42.70;;;;;;5069737;28;20123;-63
2022/01/22 00:45:31;;;;;;;2.75;1.13;;;19.10;42.70;;;;;;5070109;28;20029;-63
2022/01/22 00:47:57;;;;;;;3.00;1.10;;;19.00;42.70;;;;;;5067014;28;20056;-63
2022/01/22 00:50:23;;;;;;;1.92;0.90;;;19.00;42.60;;;;;;5075269;28;20020;-63
2022/01/22 00:52:50;;;;;;;1.70;1.00;;;19.00;42.60;;;;;;5074784;28;20063;-64
2022/01/22 00:55:16;;;;;;;2.88;1.10;;;19.00;42.60;;;;;;5075781;28;20440;-64
2022/01/22 00:57:42;;;;;;;2.83;1.23;;;19.00;42.60;;;;;;5057364;28;20077;-64
2022/01/22 01:00:12;;;;;;;2.33;1.20;;;19.00;43.30;;;;;;5074820;28;20170;-64
2022/01/22 01:02:37;;;;;;;3.10;1.08;;;19.00;42.60;;;;;;5067291;28;20028;-64
2022/01/22 01:05:05;;;;;;;2.95;1.15;;;18.90;42.50;;;;;;5071143;28;20032;-64
2022/01/22 01:07:31;;;;;;;3.35;1.15;;;18.90;42.50;;;;;;5074814;28;20028;-64
2022/01/22 01:09:57;;;;;;;1.73;0.98;;;18.90;42.50;;;;;;5075549;28;20039;-64
2022/01/22 01:12:23;;;;;;;3.08;1.08;;;18.90;42.50;;;;;;5063543;28;20024;-63
2022/01/22 01:33:54;;;;;;;2.90;1.00;;;18.70;42.50;;;;;;5074429;28;20545;-64
2022/01/22 01:36:20;;;;;;;3.33;1.10;;;18.70;42.50;;;;;;5075631;28;20024;-64
2022/01/22 01:38:51;;;;;;;1.90;1.23;;;18.70;42.50;;;;;;5075325;28;20444;-63
2022/01/22 01:41:27;;;;;;;2.22;0.90;;;18.70;42.50;;;;;;5057170;28;20052;-62
2022/01/22 01:43:52;;;;;;;1.80;1.00;;;18.60;42.50;;;;;;5065194;28;20029;-62
2022/01/22 01:46:18;;;;;;;2.05;1.10;;;18.60;42.50;;;;;;5072630;28;20025;-63
2022/01/22 01:48:44;;;;;;;4.13;1.30;;;18.60;42.50;;;;;;5072784;28;20029;-63
2022/01/22 01:51:10;;;;;;;3.70;1.10;;;18.60;42.40;;;;;;5064627;28;20024;-63
2022/01/22 01:59:01;;;;;;;2.65;1.20;;;18.60;42.40;;;;;;5073119;28;20106;-63
2022/01/22 02:01:27;;;;;;;2.20;1.10;;;18.60;42.50;;;;;;5074500;28;20040;-63
2022/01/22 02:03:52;;;;;;;2.15;1.40;;;18.50;42.40;;;;;;5064329;28;20024;-62
2022/01/22 02:06:18;;;;;;;2.05;1.10;;;18.50;42.40;;;;;;5073901;28;20099;-63
2022/01/22 02:08:44;;;;;;;2.97;1.00;;;18.50;42.40;;;;;;5072272;28;20028;-63
2022/01/22 02:11:11;;;;;;;1.25;0.80;;;18.50;42.40;;;;;;5056904;28;20028;-63
2022/01/22 02:24:18;;;;;;;3.22;1.10;;;18.40;42.40;;;;;;5065436;28;20044;-63
2022/01/22 02:26:49;;;;;;;2.05;1.08;;;18.40;42.40;;;;;;5054660;28;20431;-63
2022/01/22 02:29:15;;;;;;;2.83;1.13;;;18.40;42.40;;;;;;5072048;28;20024;-63
2022/01/22 02:31:49;;;;;;;2.38;1.20;;;18.40;42.40;;;;;;5056937;28;20087;-63
2022/01/22 02:34:30;;;;;;;1.30;1.00;;;18.40;42.40;;;;;;5062646;28;20032;-63
2022/01/22 02:37:04;;;;;;;2.25;1.20;;;18.40;42.40;;;;;;5067956;28;20066;-63
2022/01/22 02:39:40;;;;;;;2.97;0.98;;;18.30;42.40;;;;;;5056469;28;20043;-64
2022/01/22 02:42:07;;;;;;;1.52;1.10;;;18.30;42.40;;;;;;5073665;28;20438;-64
2022/01/22 02:44:34;;;;;;;3.85;1.10;;;18.30;42.40;;;;;;5073452;28;20063;-64
2022/01/22 02:47:03;;;;;;;2.05;1.05;;;18.30;42.40;;;;;;5073716;28;20078;-64
2022/01/22 02:49:29;;;;;;;1.60;1.10;;;18.30;42.40;;;;;;5072724;28;20024;-64
2022/01/22 02:52:03;;;;;;;2.88;0.98;;;18.30;42.40;;;;;;5072667;28;20032;-64
2022/01/22 02:54:29;;;;;;;1.42;1.02;;;18.30;42.40;;;;;;5071284;28;20028;-64
2022/01/22 02:56:55;;;;;;;1.60;1.00;;;18.30;42.40;;;;;;5073538;28;20025;-62
2022/01/22 02:59:22;;;;;;;2.65;1.10;;;18.30;42.40;;;;;;5072310;28;20094;-63
2022/01/22 03:01:49;;;;;;;1.60;1.30;;;18.30;42.40;;;;;;5073181;28;20517;-63
2022/01/22 03:04:14;;;;;;;2.65;1.30;;;18.20;42.30;;;;;;5070719;28;20459;-62
2022/01/22 03:06:40;;;;;;;2.88;1.27;;;18.20;42.30;;;;;;5072723;28;20060;-63
2022/01/22 03:09:09;;;;;;;2.83;1.02;;;18.30;42.40;;;;;;5068393;28;20037;-63
2022/01/22 03:11:43;;;;;;;1.90;0.88;;;18.30;42.40;;;;;;5036129;28;20384;-63
2022/01/22 03:14:51;;;;;;;1.13;0.90;;;18.30;42.40;;;;;;5072039;28;20020;-63
2022/01/22 03:17:49;;;;;;;1.48;1.00;;;18.20;42.30;;;;;;5072546;28;20037;-63
2022/01/22 03:22:21;;;;;;;2.08;1.10;;;18.10;42.40;;;;;;5072945;28;20204;-63
2022/01/22 03:27:32;;;;;;;2.30;1.13;;;18.20;42.50;;;;;;5073411;28;20052;-63
2022/01/22 03:29:59;;;;;;;1.48;0.93;;;18.10;42.40;;;;;;5059152;28;20032;-62
2022/01/22 03:32:29;;;;;;;1.67;0.90;;;18.10;42.40;;;;;;5072681;28;20033;-62
2022/01/22 03:35:44;;;;;;;2.25;1.00;;;18.10;42.40;;;;;;5072584;28;20468;-63
2022/01/22 03:37:41;;;;;;;3.17;1.30;;;18.10;42.40;;;;;;5057872;28;20174;-63
2022/01/22 03:40:09;;;;;;;3.15;1.10;;;18.10;42.40;;;;;;5068111;28;20067;-64
2022/01/22 03:42:35;;;;;;;2.05;1.00;;;18.10;42.40;;;;;;5067105;28;20041;-64
2022/01/22 03:45:03;;;;;;;1.77;1.30;;;18.10;42.40;;;;;;5065985;28;20484;-64
2022/01/22 03:47:28;;;;;;;3.15;1.10;;;18.10;42.40;;;;;;5069155;28;20029;-65
2022/01/22 03:49:54;;;;;;;1.67;1.00;;;18.10;42.40;;;;;;5054841;28;20025;-64
2022/01/22 03:52:20;;;;;;;1.95;0.95;;;18.10;42.40;;;;;;5065589;28;20119;-63
2022/01/22 03:54:46;;;;;;;3.05;1.38;;;18.10;42.40;;;;;;5060379;28;20394;-63
2022/01/22 03:57:12;;;;;;;1.70;0.75;;;18.00;42.40;;;;;;5072298;28;20483;-63
2022/01/22 03:59:37;;;;;;;2.90;1.10;;;18.00;42.40;;;;;;5071964;28;20036;-63
2022/01/22 04:04:37;;;;;;;2.80;1.20;;;18.00;42.40;;;;;;5044569;28;20063;-63
2022/01/22 04:09:46;;;;;;;2.33;1.33;;;18.00;42.50;;;;;;5062015;28;20112;-63
2022/01/22 04:12:15;;;;;;;1.85;1.20;;;18.00;42.50;;;;;;5071286;28;20548;-64
2022/01/22 04:14:54;;;;;;;1.13;0.88;;;18.00;42.50;;;;;;5063604;28;20037;-64
2022/01/22 04:17:36;;;;;;;2.35;1.02;;;18.00;42.50;;;;;;5057037;28;20027;-64
2022/01/22 04:25:34;;;;;;;2.22;1.17;;;17.90;43.40;;;;;;5064293;28;20083;-62
2022/01/22 04:28:00;;;;;;;2.80;1.00;;;17.90;42.50;;;;;;5072973;28;20024;-63
2022/01/22 04:30:29;;;;;;;2.63;1.30;;;17.90;42.50;;;;;;5075565;28;20024;-63
2022/01/22 04:32:56;;;;;;;1.92;1.13;;;17.90;42.50;;;;;;5070623;28;20028;-63
2022/01/22 04:35:25;;;;;;;1.60;1.17;;;17.80;42.50;;;;;;5057898;28;20108;-63
2022/01/22 04:37:51;;;;;;;1.40;0.90;;;17.80;42.40;;;;;;5056496;28;20049;-63
2022/01/22 04:40:17;;;;;;;1.63;0.88;;;17.80;42.40;;;;;;5074940;28;20068;-64
2022/01/22 04:42:43;;;;;;;2.13;0.80;;;17.80;42.40;;;;;;5067304;28;20435;-64
2022/01/22 04:48:26;;;;;;;2.20;0.98;;;17.80;42.50;;;;;;5050403;28;20409;-64
2022/01/22 04:56:20;;;;;;;1.60;1.20;;;17.80;42.60;;;;;;5067475;28;20044;-64
2022/01/22 04:58:46;;;;;;;0.93;0.80;;;17.70;42.60;;;;;;5075579;28;20028;-63
2022/01/22 05:01:11;;;;;;;2.78;1.10;;;17.70;42.60;;;;;;5075417;28;20036;-63
2022/01/22 05:03:37;;;;;;;1.98;1.10;;;17.70;42.60;;;;;;5075528;28;20040;-63
2022/01/22 05:06:06;;;;;;;1.20;0.95;;;17.70;42.60;;;;;;5076315;28;20032;-63
2022/01/22 05:08:35;;;;;;;2.15;1.08;;;17.70;42.60;;;;;;5062925;28;20131;-63
2022/01/22 05:11:00;;;;;;;2.03;1.05;;;17.70;42.60;;;;;;5074475;28;20070;-64
2022/01/22 05:13:26;;;;;;;1.25;0.80;;;17.70;42.60;;;;;;5074718;28;20037;-64
2022/01/22 05:15:51;;;;;;;1.92;1.02;;;17.70;42.60;;;;;;5075953;28;20445;-63
2022/01/22 05:18:17;;;;;;;2.08;1.10;;;17.70;42.60;;;;;;5075252;28;20040;-63
2022/01/22 05:20:54;;;;;;;2.00;1.35;;;17.70;42.60;;;;;;5056001;28;20075;-63
2022/01/22 05:23:23;;;;;;;2.63;1.10;;;17.70;42.60;;;;;;5067509;28;20468;-63
2022/01/22 05:25:56;;;;;;;1.88;0.90;;;17.70;42.60;;;;;;5071471;28;20025;-63
2022/01/22 05:31:24;;;;;;;1.98;1.05;;;17.60;42.70;;;;;;5054321;28;20036;-64
2022/01/22 05:39:05;;;;;;;2.55;1.27;;;17.60;42.60;;;;;;5074980;28;20024;-64
2022/01/22 05:41:32;;;;;;;2.20;1.10;;;17.60;42.70;;;;;;5074697;28;20048;-64
2022/01/22 05:43:58;;;;;;;2.38;0.90;;;17.60;42.70;;;;;;5074869;28;20078;-64
2022/01/22 05:46:24;;;;;;;1.30;0.90;;;17.60;42.70;;;;;;5068799;28;20057;-64
2022/01/22 05:48:49;;;;;;;3.58;1.10;;;17.60;42.70;;;;;;5067145;28;20103;-64
2022/01/22 05:51:16;;;;;;;2.22;0.80;;;17.60;42.70;;;;;;5069850;28;20429;-64
2022/01/22 06:01:48;;;;;;;2.38;1.15;;;17.50;42.80;;;;;;5063666;28;20063;-63
2022/01/22 06:04:13;;;;;;;1.27;0.88;;;17.50;42.70;;;;;;5068387;28;20028;-63
2022/01/22 06:06:39;;;;;;;1.88;0.98;;;17.50;42.70;;;;;;5074272;28;20019;-62
2022/01/22 06:09:08;;;;;;;2.83;1.08;;;17.50;42.70;;;;;;5055731;28;20035;-63
2022/01/22 06:11:41;;;;;;;1.77;1.17;;;17.50;42.70;;;;;;5074859;28;20060;-63
2022/01/22 06:14:06;;;;;;;2.22;0.98;;;17.50;42.80;;;;;;5059419;28;20082;-63
2022/01/22 06:16:32;;;;;;;1.80;0.90;;;17.50;42.80;;;;;;5073185;28;20468;-64
2022/01/22 06:18:57;;;;;;;2.78;1.20;;;17.50;42.80;;;;;;5069737;28;20457;-64
2022/01/22 06:21:23;;;;;;;2.20;1.10;;;17.50;42.80;;;;;;5060481;28;20094;-64
2022/01/22 06:23:49;;;;;;;1.80;1.05;;;17.50;42.90;;;;;;5054132;28;20091;-64
2022/01/22 06:26:14;;;;;;;1.73;1.08;;;17.40;42.80;;;;;;5074647;28;20024;-64
2022/01/22 06:28:41;;;;;;;2.95;1.27;;;17.50;42.80;;;;;;5066688;28;20479;-64
2022/01/22 06:31:07;;;;;;;2.35;1.00;;;17.50;42.80;;;;;;5062104;28;20037;-65
2022/01/22 06:33:33;;;;;;;2.83;1.00;;;17.40;42.80;;;;;;5061739;28;20501;-64
2022/01/22 06:35:59;;;;;;;2.20;0.98;;;17.40;42.80;;;;;;5074187;28;20050;-64
2022/01/22 06:38:24;;;;;;;4.40;1.27;;;17.40;42.80;;;;;;5062826;28;20115;-64
2022/01/22 06:43:34;;;;;;;1.30;1.00;;;17.40;42.80;;;;;;5061193;28;20549;-64
2022/01/22 06:46:00;;;;;;;2.03;1.10;;;17.40;42.90;;;;;;5070899;28;20033;-64
2022/01/22 06:48:26;;;;;;;1.65;1.00;;;17.40;42.90;;;;;;5059394;28;20033;-64
2022/01/22 06:50:52;;;;;;;2.35;1.20;;;17.40;42.90;;;;;;5053932;28;20495;-63
2022/01/22 06:53:18;;;;;;;2.83;1.25;;;17.40;42.90;;;;;;5068083;28;20029;-63
2022/01/22 06:58:09;;;;;;;1.70;1.15;;;17.40;42.90;;;;;;5071321;28;20403;-64
2022/01/22 07:00:35;;;;;;;2.22;1.13;;;17.30;42.80;;;;;;5067394;28;20090;-64
2022/01/22 07:03:02;;;;;;;2.50;1.20;;;17.30;42.80;;;;;;5070596;28;20037;-64
2022/01/22 07:05:28;;;;;;;2.20;1.23;;;17.30;42.90;;;;;;5066751;28;20145;-64
2022/01/22 07:07:54;;;;;;;1.95;1.10;;;17.30;42.90;;;;;;5073375;28;20445;-64
2022/01/22 07:10:19;;;;;;;2.17;1.30;;;17.30;42.90;;;;;;5073526;28;20020;-64
2022/01/22 07:12:45;;;;;;;1.92;1.10;;;17.30;42.90;;;;;;5065928;28;20044;-64
2022/01/22 07:15:11;;;;;;;1.73;1.17;;;17.30;42.90;;;;;;5056847;28;20539;-64
2022/01/22 07:17:39;;;;;;;2.17;1.48;;;17.30;42.90;;;;;;5055298;28;20045;-64
2022/01/22 07:20:13;;;;;;;2.15;1.20;;;17.30;42.90;;;;;;5065923;28;20024;-64
2022/01/22 07:22:51;;;;;;;2.22;1.20;;;17.30;43.00;;;;;;5063211;28;20071;-64
2022/01/22 07:25:17;;;;;;;2.42;1.50;;;17.30;42.90;;;;;;5072881;28;20025;-64
2022/01/22 07:27:44;;;;;;;2.00;1.17;;;17.30;43.00;;;;;;5067465;28;20107;-63
2022/01/22 07:30:10;;;;;;;2.05;1.33;;;17.30;43.50;;;;;;5072533;28;20029;-63
2022/01/22 07:32:40;;;;;;;1.67;1.10;;;17.20;43.00;;;;;;5072596;28;20058;-63
2022/01/22 07:35:06;;;;;;;1.60;1.10;;;17.30;43.00;;;;;;5071898;28;20383;-63
2022/01/22 07:37:32;;;;;;;1.85;1.30;;;17.20;43.00;;;;;;5072337;28;20039;-63
2022/01/22 07:39:58;;;;;;;3.15;1.45;;;17.20;43.00;;;;;;5072334;28;20155;-66
2022/01/22 07:42:24;;;;;;;8.13;4.70;;;17.20;43.00;;;;;;5072222;28;20053;-66
2022/01/22 07:44:49;;;;;;;8.10;4.50;;;17.00;43.30;;;;;;5042437;28;20036;-66
2022/01/22 07:47:15;;;;;;;7.03;3.85;;;16.70;43.90;;;;;;5069100;28;20013;-66
2022/01/22 07:49:41;;;;;;;8.75;3.78;;;16.40;44.60;;;;;;5056048;28;20048;-66
2022/01/22 07:52:07;;;;;;;7.20;4.20;;;16.20;45.20;;;;;;5069187;28;20024;-66
2022/01/22 07:54:33;;;;;;;7.32;4.00;;;15.90;46.20;;;;;;5073647;28;20528;-66
2022/01/22 07:56:59;;;;;;;7.28;3.50;;;15.70;46.90;;;;;;5068814;28;20035;-65
2022/01/22 07:59:25;;;;;;;6.90;3.20;;;15.60;47.40;;;;;;5073303;28;20431;-65
2022/01/22 08:01:51;;;;;;;8.25;3.72;;;15.50;47.90;;;;;;5057367;28;20029;-66
2022/01/22 08:04:23;;;;;;;7.20;3.50;;;15.50;48.20;;;;;;5068034;28;20025;-70
2022/01/22 08:06:49;;;;;;;7.03;2.58;;;15.40;49.40;;;;;;5057437;28;20098;-63
2022/01/22 08:09:15;;;;;;;4.70;2.40;;;15.40;48.80;;;;;;5042767;28;20439;-64
2022/01/22 08:11:41;;;;;;;4.72;2.10;;;15.70;49.80;;;;;;5065427;28;20092;-63
2022/01/22 08:14:10;;;;;;;4.07;1.92;;;16.10;48.30;;;;;;5072528;28;20052;-64
2022/01/22 08:16:36;;;;;;;4.13;1.90;;;16.40;47.70;;;;;;5076992;28;20586;-64
2022/01/22 08:19:03;;;;;;;5.32;2.10;;;16.60;47.00;;;;;;5076914;28;20020;-63
2022/01/22 08:21:47;;;;;;;3.55;1.70;;;16.90;46.60;;;;;;5076855;28;20086;-65
2022/01/22 08:24:14;;;;;;;3.45;1.65;;;17.10;46.10;;;;;;5073991;28;20097;-63
2022/01/22 08:26:48;;;;;;;2.95;1.42;;;17.30;45.80;;;;;;5076832;28;20028;-63
2022/01/22 08:29:14;;;;;;;3.03;1.40;;;17.40;45.60;;;;;;5077110;28;20032;-63
2022/01/22 08:31:49;;;;;;;3.40;1.38;;;17.60;45.30;;;;;;5076522;28;20079;-63
2022/01/22 08:36:59;;;;;;;2.88;1.40;;;17.80;44.90;;;;;;5058266;28;20392;-64
2022/01/22 08:39:25;;;;;;;3.85;1.38;;;18.00;44.70;;;;;;5063401;28;20033;-63
2022/01/22 08:41:51;;;;;;;2.92;1.00;;;18.10;44.40;;;;;;5076256;28;20165;-63
2022/01/22 08:44:16;;;;;;;2.22;1.00;;;18.20;44.20;;;;;;5076632;28;20470;-63
2022/01/22 08:46:42;;;;;;;1.70;0.82;;;18.40;44.10;;;;;;5076073;28;20057;-62
2022/01/22 08:49:09;;;;;;;1.10;0.90;;;18.50;43.80;;;;;;5076332;28;20032;-63
2022/01/22 08:51:37;;;;;;;2.65;1.10;;;18.60;43.60;;;;;;5076309;28;20056;-62
2022/01/22 08:54:04;;;;;;;3.28;1.08;;;18.70;43.40;;;;;;5076283;28;20031;-63
2022/01/22 08:56:30;;;;;;;2.85;1.55;;;18.80;43.40;;;;;;5070207;28;20032;-62
2022/01/22 08:58:56;;;;;;;2.42;1.02;;;18.90;43.10;;;;;;5074615;28;20036;-62
2022/01/22 09:01:23;;;;;;;2.25;0.85;;;19.00;42.90;;;;;;5076289;28;20044;-64
2022/01/22 09:03:49;;;;;;;2.05;1.05;;;19.10;42.80;;;;;;5076199;28;20098;-63
2022/01/22 09:06:17;;;;;;;1.90;0.90;;;19.20;42.60;;;;;;5075785;28;20027;-62
2022/01/22 09:08:45;;;;;;;1.20;0.80;;;19.30;42.40;;;;;;5076212;28;20052;-63
2022/01/22 09:11:11;;;;;;;2.30;0.90;;;19.40;42.20;;;;;;5076302;28;20021;-66
2022/01/22 09:13:37;;;;;;;2.13;0.82;;;19.50;42.10;;;;;;5075472;28;20043;-66
2022/01/22 09:16:04;;;;;;;2.05;0.88;;;19.50;41.90;;;;;;5075940;28;20024;-62
2022/01/22 09:18:30;;;;;;;2.15;0.90;;;19.70;41.80;;;;;;5074298;28;20028;-65
2022/01/22 09:21:04;;;;;;;1.60;0.90;;;19.70;41.50;;;;;;5055815;28;20023;-65
2022/01/22 09:23:32;;;;;;;1.67;1.13;;;19.80;41.10;;;;;;5062937;28;20029;-65
2022/01/22 09:25:58;;;;;;;1.95;1.05;;;19.90;40.90;;;;;;5073014;28;20024;-66
2022/01/22 09:28:25;;;;;;;5.65;1.20;;;19.90;40.70;;;;;;5067250;28;20036;-66
2022/01/22 09:30:50;;;;;;;1.88;0.95;;;20.00;40.60;;;;;;5070902;28;20428;-66
2022/01/22 09:33:16;;;;;;;2.30;0.75;;;20.10;40.40;;;;;;5074081;28;20059;-66
2022/01/22 09:35:42;;;;;;;1.40;0.70;;;20.10;40.20;;;;;;5073947;28;20102;-66
2022/01/22 09:38:08;;;;;;;2.25;1.00;;;20.20;40.10;;;;;;5062562;28;20475;-66
2022/01/22 09:40:34;;;;;;;1.10;0.70;;;20.30;40.10;;;;;;5046686;28;20480;-63
2022/01/22 09:43:00;;;;;;;2.13;1.00;;;20.30;39.90;;;;;;5074438;28;20568;-63
2022/01/22 09:45:29;;;;;;;1.35;0.82;;;20.40;39.80;;;;;;5074629;28;20488;-63
2022/01/22 09:47:58;;;;;;;1.40;0.70;;;20.40;39.60;;;;;;5074185;28;20138;-65
2022/01/22 09:50:25;;;;;;;1.95;1.10;;;20.40;39.50;;;;;;5075274;28;20016;-65
2022/01/22 09:52:52;;;;;;;1.50;1.00;;;20.50;39.40;;;;;;5070787;28;20040;-65
2022/01/22 09:55:18;;;;;;;1.13;0.70;;;20.50;39.30;;;;;;5070830;28;20040;-65
2022/01/22 09:57:45;;;;;;;1.77;1.02;;;20.60;39.20;;;;;;5047435;28;20055;-65
2022/01/22 10:00:13;;;;;;;2.45;0.80;;;20.70;39.10;;;;;;5074269;28;20767;-63
2022/01/22 10:02:45;;;;;;;1.23;0.70;;;20.70;38.90;;;;;;5074096;28;20171;-63
2022/01/22 10:05:34;;;;;;;1.63;0.80;;;20.80;38.80;;;;;;5073576;28;20473;-63
2022/01/22 10:08:28;;;;;;;1.02;0.70;;;20.80;38.60;;;;;;5074012;28;20020;-63
2022/01/22 10:10:55;;;;;;;1.52;0.82;;;20.90;38.60;;;;;;5073802;28;20722;-63
2022/01/22 10:13:41;;;;;;;2.70;1.10;;;20.90;38.80;;;;;;5044117;28;20029;-62
2022/01/22 10:16:17;;;;;;;2.60;1.00;;;20.90;38.50;;;;;;5061797;28;20077;-62
2022/01/22 10:18:43;;;;;;;2.13;0.90;;;20.90;38.50;;;;;;5073286;28;20059;-62
2022/01/22 10:21:10;;;;;;;1.88;0.95;;;21.00;39.50;;;;;;5073720;28;20056;-62
2022/01/22 10:23:39;;;;;;;2.55;0.95;;;21.00;38.40;;;;;;5072912;28;20037;-63
2022/01/22 10:26:09;;;;;;;1.75;1.10;;;21.10;38.30;;;;;;5063134;28;20017;-62
2022/01/22 10:28:41;;;;;;;1.42;0.85;;;21.10;38.40;;;;;;5068381;28;20005;-63
2022/01/22 10:31:10;;;;;;;2.47;0.90;;;21.20;38.40;;;;;;5073507;28;20020;-64
2022/01/22 10:33:36;;;;;;;2.90;1.30;;;21.10;38.60;;;;;;5070669;28;20094;-62
2022/01/22 10:36:16;;;;;;;2.38;1.00;;;21.10;38.60;;;;;;5061694;28;20388;-64
2022/01/22 10:38:46;;;;;;;2.53;1.02;;;21.10;38.60;;;;;;5071942;28;20025;-65
2022/01/22 10:41:14;;;;;;;2.20;1.40;;;21.00;38.80;;;;;;5071346;28;20025;-65
2022/01/22 10:43:50;;;;;;;4.18;1.38;;;21.00;38.80;;;;;;5072171;28;20123;-65
2022/01/22 10:46:20;;;;;;;4.68;1.25;;;21.00;38.80;;;;;;5054656;28;20569;-64
2022/01/22 10:49:01;;;;;;;5.07;1.50;;;20.90;38.90;;;;;;5063920;28;20020;-64
2022/01/22 10:51:28;;;;;;;2.78;1.50;;;20.90;38.90;;;;;;5063360;28;20025;-65
2022/01/22 10:53:59;;;;;;;2.88;1.27;;;20.80;39.20;;;;;;5043718;28;20045;-65
2022/01/22 10:56:30;;;;;;;3.80;1.35;;;20.80;39.40;;;;;;5059063;28;20082;-63
2022/01/22 10:59:09;;;;;;;3.17;1.42;;;20.70;39.50;;;;;;5066458;28;20036;-62
2022/01/22 11:01:46;;;;;;;6.60;1.35;;;20.70;39.70;;;;;;5052787;28;20527;-64
2022/01/22 11:04:15;;;;;;;3.33;1.20;;;20.60;39.80;;;;;;5069250;28;20052;-64
2022/01/22 11:06:55;;;;;;;3.53;1.25;;;20.60;40.10;;;;;;5072597;28;20025;-64
2022/01/22 11:09:23;;;;;;;2.45;1.17;;;20.60;40.20;;;;;;5061495;28;20116;-62
2022/01/22 11:11:49;;;;;;;4.05;1.23;;;20.50;40.30;;;;;;5052700;28;20029;-64
2022/01/22 11:14:16;;;;;;;3.60;1.20;;;20.50;40.50;;;;;;5052665;28;20044;-64
2022/01/22 11:16:44;;;;;;;2.55;1.23;;;20.50;40.70;;;;;;5065921;28;20036;-65
2022/01/22 11:19:14;;;;;;;2.60;1.20;;;20.50;40.80;;;;;;5072710;28;20013;-65
2022/01/22 11:21:46;;;;;;;2.10;1.15;;;20.50;41.10;;;;;;5072547;28;20078;-66
2022/01/22 11:24:19;;;;;;;2.38;1.17;;;20.60;41.40;;;;;;5072607;28;20111;-66
2022/01/22 11:26:52;;;;;;;3.65;1.30;;;20.50;41.50;;;;;;5069749;28;20154;-66
2022/01/22 11:29:23;;;;;;;5.32;1.30;;;20.50;41.70;;;;;;5051550;28;20052;-66
2022/01/22 11:31:50;;;;;;;2.55;1.50;;;20.50;41.70;;;;;;5034197;28;20522;-65
2022/01/22 11:34:19;;;;;;;3.60;1.35;;;20.50;41.80;;;;;;5052168;28;20426;-65
2022/01/22 11:36:53;;;;;;;4.60;1.27;;;20.50;41.90;;;;;;5056621;28;20021;-64
2022/01/22 11:39:21;;;;;;;1.63;1.10;;;20.50;42.10;;;;;;5041988;28;20082;-63
2022/01/22 11:41:56;;;;;;;3.35;1.23;;;20.50;42.10;;;;;;5071695;28;20032;-66
2022/01/22 11:44:40;;;;;;;2.22;1.27;;;20.50;42.20;;;;;;5072195;28;20028;-64
2022/01/22 11:47:09;;;;;;;2.70;1.20;;;20.50;42.20;;;;;;5062901;28;20032;-66
2022/01/22 11:49:36;;;;;;;2.75;1.25;;;20.50;42.30;;;;;;5064128;28;20472;-63
2022/01/22 11:52:08;;;;;;;2.42;1.40;;;20.40;42.20;;;;;;5062540;28;20028;-66
2022/01/22 11:54:56;;;;;;;3.08;1.40;;;20.50;42.20;;;;;;5057565;28;20024;-64
2022/01/22 11:57:24;;;;;;;4.55;1.30;;;20.40;42.10;;;;;;5070220;28;20024;-65
2022/01/22 12:00:20;;;;;;;4.10;1.52;;;20.40;42.40;;;;;;5060808;28;20368;-65
2022/01/22 12:03:08;;;;;;;4.18;1.25;;;20.40;42.20;;;;;;5065928;28;20035;-64
2022/01/22 12:05:52;;;;;;;2.42;1.05;;;20.40;43.30;;;;;;5071069;28;20085;-65
2022/01/22 12:08:18;;;;;;;4.05;1.23;;;20.40;42.40;;;;;;5066233;28;20533;-66
2022/01/22 12:14:26;;;;;;;2.60;1.40;;;20.40;42.50;;;;;;5067421;28;20025;-66
2022/01/22 12:16:39;;;;;;;4.70;1.63;;;20.40;42.60;;;;;;5071734;28;20527;-63
2022/01/22 12:19:09;;;;;;;2.67;1.60;;;20.30;42.60;;;;;;5070767;28;20095;-65
2022/01/22 12:21:37;;;;;;;7.00;2.35;;;20.30;42.70;;;;;;5071608;28;20036;-63
2022/01/22 12:24:06;;;;;;;5.40;2.00;;;20.30;42.80;;;;;;5050788;28;20095;-63
2022/01/22 12:26:47;;;;;;;6.03;2.10;;;20.30;43.00;;;;;;5064322;28;20040;-63
2022/01/22 12:29:34;;;;;;;4.90;2.10;;;20.30;42.90;;;;;;5051479;28;20021;-65
2022/01/22 12:32:06;;;;;;;6.72;2.10;;;20.30;43.20;;;;;;5050996;28;20439;-64
2022/01/22 12:34:52;;;;;;;3.75;2.15;;;20.20;43.20;;;;;;5055159;28;20025;-64
2022/01/22 12:37:20;;;;;;;3.33;1.63;;;20.20;43.20;;;;;;5060601;28;20058;-63
2022/01/22 12:39:50;;;;;;;5.57;2.00;;;20.20;43.30;;;;;;5050668;28;20021;-64
2022/01/22 12:42:28;;;;;;;5.03;1.80;;;20.20;43.30;;;;;;5036902;28;20425;-64
2022/01/22 12:45:02;;;;;;;3.35;1.92;;;20.20;43.50;;;;;;5068135;28;20032;-65
2022/01/22 12:47:28;;;;;;;3.40;1.75;;;20.10;43.60;;;;;;5061431;28;20064;-63
2022/01/22 12:50:05;;;;;;;4.65;1.85;;;20.10;43.60;;;;;;5074270;28;20106;-63
2022/01/22 12:52:33;;;;;;;4.47;2.08;;;20.10;43.70;;;;;;5065548;28;20035;-65
2022/01/22 12:54:59;;;;;;;5.78;1.63;;;20.10;43.70;;;;;;5061074;28;20029;-65
2022/01/22 12:57:27;;;;;;;4.57;1.77;;;20.10;43.70;;;;;;5066156;28;20036;-65
2022/01/22 13:00:15;;;;;;;3.45;1.70;;;20.10;43.50;;;;;;5066887;28;20029;-65
2022/01/22 13:02:57;;;;;;;8.80;2.20;;;20.10;43.30;;;;;;5055703;28;20029;-64
2022/01/22 13:05:24;;;;;;;8.38;2.22;;;20.10;43.00;;;;;;5055832;28;20045;-63
2022/01/22 13:07:55;;;;;;;4.18;1.80;;;20.10;43.00;;;;;;5055966;28;20481;-63
2022/01/22 13:10:32;;;;;;;6.75;2.42;;;20.00;42.70;;;;;;5055734;28;20096;-63
2022/01/22 13:12:59;;;;;;;7.88;2.22;;;20.00;42.80;;;;;;5065443;28;20033;-63
2022/01/22 13:15:27;;;;;;;5.95;2.47;;;20.00;42.70;;;;;;5055331;28;20025;-63
2022/01/22 13:17:58;;;;;;;4.53;2.20;;;20.00;42.70;;;;;;5055574;28;20032;-63
2022/01/22 13:20:26;;;;;;;4.75;2.05;;;19.90;42.60;;;;;;5037774;28;20087;-65
2022/01/22 13:22:53;;;;;;;9.85;2.45;;;19.90;42.50;;;;;;5054168;28;20044;-64
2022/01/22 13:25:20;;;;;;;5.57;2.78;;;19.90;42.40;;;;;;5055327;28;20099;-63
2022/01/22 13:28:04;;;;;;;9.65;2.97;;;19.90;43.30;;;;;;5055526;28;20047;-63
2022/01/22 13:30:41;;;;;;;7.80;2.40;;;19.90;42.20;;;;;;5055367;28;20041;-64
2022/01/22 13:33:30;;;;;;;5.18;2.10;;;19.90;42.40;;;;;;5038160;28;20112;-64
2022/01/22 13:49:33;;;;;;;5.88;2.20;;;19.80;43.20;;;;;;5067281;28;20129;-66
2022/01/22 13:52:10;;;;;;;4.80;2.33;;;19.70;43.20;;;;;;5061870;28;20079;-66
2022/01/22 13:54:43;;;;;;;8.98;2.83;;;19.70;43.90;;;;;;5059846;28;20130;-66
2022/01/22 13:57:10;;;;;;;;;;;19.70;44.40;;;;;;5071328;28;20107;-66
2022/01/22 13:59:47;;;;;;;7.30;2.22;;;19.70;45.00;;;;;;5072160;28;19912;-66
2022/01/22 14:02:30;;;;;;;6.55;2.47;;;19.60;45.50;;;;;;5060060;28;20067;-65
2022/01/22 14:05:07;;;;;;;5.63;2.45;;;19.60;45.70;;;;;;5064310;28;20017;-65
2022/01/22 14:07:41;;;;;;;4.32;2.60;;;19.70;46.10;;;;;;5053548;28;20021;-64
2022/01/22 14:10:15;;;;;;;6.00;2.47;;;19.70;46.10;;;;;;5060728;28;20032;-65
2022/01/22 14:12:43;;;;;;;5.53;2.63;;;19.70;46.20;;;;;;5073162;28;20032;-65
2022/01/22 14:15:28;;;;;;;3.55;2.17;;;19.70;46.30;;;;;;5060266;28;20475;-64
2022/01/22 14:18:14;;;;;;;4.63;2.60;;;19.70;46.50;;;;;;5062687;28;20021;-64
2022/01/22 14:21:08;;;;;;;5.10;2.78;;;19.70;46.60;;;;;;5066821;28;20053;-64
2022/01/22 14:23:36;;;;;;;5.45;2.88;;;19.80;46.80;;;;;;5053264;28;20032;-65
2022/01/22 14:26:11;;;;;;;6.90;3.25;;;19.70;46.70;;;;;;5053341;28;20425;-65
2022/01/22 14:28:54;;;;;;;5.00;2.88;;;19.80;46.90;;;;;;5072830;28;20537;-65
2022/01/22 14:31:20;;;;;;;6.28;3.17;;;19.80;47.00;;;;;;5070898;28;20505;-65
2022/01/22 14:33:46;;;;;;;6.03;3.20;;;19.80;47.00;;;;;;5066248;28;20033;-65
2022/01/22 14:36:18;;;;;;;6.93;3.05;;;19.80;47.00;;;;;;5053107;28;20021;-65
2022/01/22 14:38:57;;;;;;;7.25;3.60;;;19.80;47.10;;;;;;5052102;28;20119;-66
2022/01/22 14:44:29;;;;;;;7.28;3.25;;;19.80;47.30;;;;;;5076139;28;20035;-66
2022/01/22 14:46:58;;;;;;;;;;;19.80;47.30;;;;;;5062523;28;20028;-66